Time;durP1;ratioP1;P1;durP2;ratioP2;P2;SDS_P1;SDS_P2;PMS_P1;PMS_P2;Temp;Humidity;BMP_temperature;BMP_pressure;BME280_temperature;BME280_humidity;BME280_pressure;Samples;Min_cycle;Max_cycle;Signal;HPM_P1;HPM_P2
2023/07/15 00:24:08;;;;;;;3.70;2.75;;;22.70;99.00;;;;;;6037973;23;20027;-85
2023/07/15 01:16:52;;;;;;;;;;;;;;;;;;;;;
2023/07/15 01:24:50;;;;;;;4.28;3.15;;;22.50;99.40;;;;;;5739651;24;20075;-84
2023/07/15 03:21:29;;;;;;;4.07;3.10;;;21.30;99.60;;;;;;6141410;22;3983550;-86
2023/07/15 03:33:20;;;;;;;;;;;;;;;;;;;;;
2023/07/15 03:36:34;;;;;;;4.72;2.90;;;20.90;99.20;;;;;;5940192;24;19929;-84
2023/07/15 03:44:03;;;;;;;;;;;;;;;;;;;;;
2023/07/15 03:46:34;;;;;;;3.05;2.75;;;21.20;98.90;;;;;;5861759;24;20029;-85
2023/07/15 03:49:49;;;;;;;3.65;2.67;;;21.30;98.90;;;;;;5927829;24;20017;-85
2023/07/15 03:52:42;;;;;;;4.53;2.50;;;21.30;98.90;;;;;;6041113;23;20058;-84
2023/07/15 04:07:50;;;;;;;3.28;2.58;;;21.60;97.90;;;;;;5815248;24;20046;-82
2023/07/15 04:11:00;;;;;;;3.92;2.47;;;21.50;98.30;;;;;;5810880;24;20226;-86
2023/07/15 04:15:29;;;;;;;;;;;;;;;;;;;;;
2023/07/15 04:18:11;;;;;;;5.13;2.95;;;21.60;97.60;;;;;;5830660;24;20085;-83
2023/07/15 04:21:55;;;;;;;4.85;2.78;;;21.70;97.40;;;;;;6028526;23;20046;-86
2023/07/15 04:29:27;;;;;;;4.00;2.35;;;21.70;96.80;;;;;;5867700;24;20027;-84
2023/07/15 04:32:21;;;;;;;5.85;2.47;;;21.60;96.70;;;;;;5943114;23;20250;-86
2023/07/15 04:34:50;;;;;;;6.13;3.13;;;21.70;96.30;;;;;;6003207;23;20023;-83
2023/07/15 04:38:12;;;;;;;4.53;3.33;;;21.70;96.50;;;;;;5980673;23;20023;-83
2023/07/15 04:41:45;;;;;;;5.45;2.78;;;21.90;96.30;;;;;;6084742;23;20110;-85
2023/07/15 04:44:13;;;;;;;5.20;3.25;;;21.90;96.40;;;;;;6170204;23;20024;-83
2023/07/15 04:46:41;;;;;;;5.00;2.90;;;22.00;96.30;;;;;;6203907;23;20028;-83
2023/07/15 04:49:09;;;;;;;4.00;2.67;;;22.10;96.20;;;;;;6212142;22;20019;-82
2023/07/15 04:51:40;;;;;;;3.88;3.05;;;22.20;96.40;;;;;;6243259;22;20023;-86
2023/07/15 04:54:34;;;;;;;4.50;2.72;;;22.30;95.90;;;;;;6244629;22;20023;-83
2023/07/15 04:57:40;;;;;;;4.32;2.88;;;22.20;95.90;;;;;;6265690;22;20027;-84
2023/07/15 05:00:58;;;;;;;5.40;2.95;;;22.30;96.00;;;;;;6243113;22;20685;-84
2023/07/15 05:04:02;;;;;;;4.18;2.83;;;22.40;95.60;;;;;;6234198;22;20140;-84
2023/07/15 05:07:22;;;;;;;;;;;;;;;;;;;;;
2023/07/15 05:10:28;;;;;;;5.05;3.10;;;22.60;95.50;;;;;;6270320;22;20015;-83
2023/07/15 05:14:13;;;;;;;;;;;;;;;;;;;;;
2023/07/15 05:17:28;;;;;;;5.38;3.22;;;22.90;95.40;;;;;;6108434;23;20104;-85
2023/07/15 05:24:01;;;;;;;5.75;2.80;;;23.30;94.40;;;;;;6067679;23;20036;-82
2023/07/15 05:28:13;;;;;;;;;;;;;;;;;;;;;
2023/07/15 05:40:17;;;;;;;5.35;2.95;;;23.90;92.60;;;;;;5862901;24;20028;-85
2023/07/15 05:46:49;;;;;;;4.38;2.78;;;24.50;91.90;;;;;;5115336;27;20452;-83
2023/07/15 05:49:17;;;;;;;6.00;3.25;;;24.40;91.50;;;;;;5097800;28;20130;-82
2023/07/15 05:51:44;;;;;;;5.18;3.38;;;24.50;91.90;;;;;;5081516;28;20070;-83
2023/07/15 05:54:11;;;;;;;4.95;3.35;;;24.60;91.50;;;;;;5075818;28;20064;-82
2023/07/15 05:56:38;;;;;;;6.32;2.90;;;24.50;90.80;;;;;;5096063;28;21042;-83
2023/07/15 05:59:05;;;;;;;6.38;3.47;;;24.70;91.50;;;;;;5067012;28;20123;-82
2023/07/15 06:01:33;;;;;;;5.03;3.05;;;24.90;91.20;;;;;;5094812;28;20055;-83
2023/07/15 06:04:00;;;;;;;7.25;3.80;;;25.00;90.80;;;;;;5075141;28;20127;-85
2023/07/15 06:06:27;;;;;;;5.85;3.30;;;25.00;90.70;;;;;;5091230;28;20407;-83
2023/07/15 06:08:54;;;;;;;5.15;3.33;;;25.10;90.60;;;;;;5081236;28;20048;-84
2023/07/15 06:11:21;;;;;;;4.15;3.05;;;25.20;90.80;;;;;;5065520;28;20131;-85
2023/07/15 06:13:48;;;;;;;4.97;3.35;;;25.40;90.80;;;;;;5057052;28;20047;-84
2023/07/15 06:16:16;;;;;;;4.20;2.80;;;25.50;90.50;;;;;;5049281;28;20052;-84
2023/07/15 06:18:43;;;;;;;4.13;3.30;;;25.60;90.20;;;;;;5069734;28;20063;-84
2023/07/15 06:21:10;;;;;;;6.47;3.13;;;25.70;90.30;;;;;;5081089;28;20101;-82
2023/07/15 06:23:38;;;;;;;5.80;3.25;;;25.70;90.10;;;;;;5075703;28;20088;-84
2023/07/15 06:26:05;;;;;;;4.35;2.70;;;25.90;89.70;;;;;;5060860;28;20403;-85
2023/07/15 06:28:32;;;;;;;6.15;3.20;;;26.00;89.20;;;;;;5093925;28;20740;-82
2023/07/15 06:31:03;;;;;;;4.35;3.00;;;26.10;90.30;;;;;;5076502;28;20045;-82
2023/07/15 06:33:31;;;;;;;4.80;3.58;;;26.20;89.50;;;;;;5087268;28;20048;-84
2023/07/15 06:35:58;;;;;;;5.07;2.72;;;26.50;89.40;;;;;;5077039;28;20495;-82
2023/07/15 06:38:29;;;;;;;3.72;2.75;;;26.50;87.40;;;;;;5070624;28;21259;-82
2023/07/15 06:40:58;;;;;;;5.28;3.45;;;26.60;87.30;;;;;;5096582;28;20488;-81
2023/07/15 06:43:25;;;;;;;4.55;3.28;;;26.70;86.10;;;;;;5087558;28;20049;-82
2023/07/15 06:45:52;;;;;;;4.45;2.85;;;26.70;87.20;;;;;;5077161;28;20127;-81
2023/07/15 06:48:19;;;;;;;5.18;2.75;;;26.90;88.00;;;;;;5075551;28;20036;-81
2023/07/15 06:50:46;;;;;;;8.57;3.20;;;26.70;86.70;;;;;;5074212;28;20037;-80
2023/07/15 06:53:13;;;;;;;2.90;2.58;;;27.00;87.10;;;;;;5070235;28;20111;-86
2023/07/15 06:55:40;;;;;;;6.13;3.10;;;27.10;85.90;;;;;;5061326;28;22417;-82
2023/07/15 06:58:07;;;;;;;5.72;3.50;;;27.20;85.70;;;;;;5072204;28;20106;-80
2023/07/15 07:00:34;;;;;;;3.95;3.03;;;27.30;85.70;;;;;;5063755;28;20102;-82
2023/07/15 07:03:02;;;;;;;3.78;3.33;;;27.40;84.60;;;;;;5049646;28;20056;-82
2023/07/15 07:05:29;;;;;;;4.30;2.50;;;27.20;85.30;;;;;;5060678;28;20057;-81
2023/07/15 07:07:56;;;;;;;6.13;3.50;;;27.40;85.60;;;;;;5036247;28;20161;-81
2023/07/15 07:10:23;;;;;;;4.75;2.38;;;27.50;84.90;;;;;;5073331;28;20047;-82
2023/07/15 07:12:51;;;;;;;3.30;2.42;;;27.70;84.70;;;;;;5073951;28;20466;-83
2023/07/15 07:15:18;;;;;;;3.67;2.70;;;27.80;83.70;;;;;;5057778;28;20064;-80
2023/07/15 07:17:45;;;;;;;5.43;2.40;;;28.00;84.60;;;;;;5058198;28;20072;-79
2023/07/15 07:20:12;;;;;;;6.45;3.10;;;28.10;84.40;;;;;;5037608;28;20126;-80
2023/07/15 07:22:39;;;;;;;5.95;2.63;;;28.20;84.30;;;;;;5078134;28;22584;-81
2023/07/15 07:25:07;;;;;;;3.88;2.70;;;28.10;83.60;;;;;;5079598;28;20049;-80
2023/07/15 07:27:34;;;;;;;2.50;2.28;;;28.30;84.50;;;;;;5074169;28;20980;-79
2023/07/15 07:30:02;;;;;;;5.40;2.65;;;28.40;82.80;;;;;;5063745;28;20041;-81
2023/07/15 07:32:29;;;;;;;4.88;2.90;;;28.40;81.70;;;;;;5070545;28;20124;-80
2023/07/15 07:34:58;;;;;;;3.60;2.72;;;28.30;81.70;;;;;;5074579;28;20045;-80
2023/07/15 07:37:26;;;;;;;4.13;2.63;;;28.70;83.60;;;;;;5073432;28;20514;-80
2023/07/15 07:39:53;;;;;;;4.00;2.40;;;28.70;82.50;;;;;;5072278;28;20045;-80
2023/07/15 07:42:20;;;;;;;4.25;2.55;;;28.70;82.60;;;;;;5046487;28;20048;-80
2023/07/15 07:44:47;;;;;;;3.40;2.53;;;28.80;81.40;;;;;;5060276;28;20051;-81
2023/07/15 07:47:14;;;;;;;4.90;2.40;;;29.00;81.40;;;;;;5070730;28;20960;-80
2023/07/15 07:49:41;;;;;;;5.03;2.17;;;29.10;82.20;;;;;;5057264;28;20059;-81
2023/07/15 07:52:08;;;;;;;3.22;2.15;;;29.10;81.80;;;;;;5075072;28;20098;-79
2023/07/15 07:54:36;;;;;;;4.18;2.15;;;29.20;80.80;;;;;;5066219;28;20056;-80
2023/07/15 07:57:03;;;;;;;2.35;2.15;;;29.20;81.30;;;;;;5070793;28;20139;-80
2023/07/15 07:59:30;;;;;;;3.35;1.95;;;29.20;79.80;;;;;;5063610;28;20122;-79
2023/07/15 08:01:57;;;;;;;3.33;2.00;;;29.30;80.50;;;;;;5054401;28;20120;-80
2023/07/15 08:04:25;;;;;;;2.20;1.92;;;29.30;79.30;;;;;;5053510;28;20144;-80
2023/07/15 08:06:53;;;;;;;3.80;1.63;;;29.50;81.40;;;;;;5071480;28;20041;-80
2023/07/15 08:09:20;;;;;;;3.00;1.52;;;29.50;79.80;;;;;;5056787;28;20066;-79
2023/07/15 08:11:47;;;;;;;2.13;1.52;;;29.60;78.90;;;;;;5038366;28;20094;-80
2023/07/15 08:14:17;;;;;;;4.10;1.77;;;29.50;77.10;;;;;;5077944;28;20052;-82
2023/07/15 08:16:45;;;;;;;3.83;1.92;;;29.60;78.20;;;;;;5058110;28;22741;-80
2023/07/15 08:19:13;;;;;;;4.30;2.13;;;29.60;78.40;;;;;;5059388;28;20072;-80
2023/07/15 08:21:40;;;;;;;2.40;2.03;;;29.70;80.00;;;;;;5055620;28;20039;-78
2023/07/15 08:24:07;;;;;;;3.97;2.40;;;29.70;78.90;;;;;;5065456;28;20235;-79
2023/07/15 08:26:35;;;;;;;3.15;1.77;;;29.70;77.00;;;;;;5052959;28;20053;-80
2023/07/15 08:29:03;;;;;;;3.30;2.00;;;29.70;78.20;;;;;;5071571;28;20052;-81
2023/07/15 08:31:30;;;;;;;3.17;1.63;;;29.70;78.30;;;;;;5055129;28;20051;-79
2023/07/15 08:33:57;;;;;;;4.18;1.80;;;29.80;77.80;;;;;;5051551;28;20108;-79
2023/07/15 08:36:24;;;;;;;2.15;1.80;;;29.90;78.20;;;;;;5065839;28;20048;-82
2023/07/15 08:38:53;;;;;;;2.90;1.63;;;29.90;79.10;;;;;;5076751;28;20044;-79
2023/07/15 08:41:24;;;;;;;2.65;2.08;;;29.90;76.80;;;;;;5058793;28;20048;-79
2023/07/15 08:43:51;;;;;;;5.95;2.35;;;29.90;76.40;;;;;;5053423;28;20500;-81
2023/07/15 08:46:29;;;;;;;2.50;1.77;;;29.90;78.10;;;;;;5053188;28;20045;-78
2023/07/15 08:48:59;;;;;;;2.47;1.85;;;29.30;77.70;;;;;;5057105;28;20036;-80
2023/07/15 08:51:45;;;;;;;3.80;2.03;;;29.50;78.10;;;;;;5039128;28;20060;-83
2023/07/15 08:54:13;;;;;;;3.45;1.70;;;29.70;78.60;;;;;;5055919;28;20060;-82
2023/07/15 08:56:40;;;;;;;2.00;1.80;;;29.70;78.40;;;;;;5049703;28;20123;-80
2023/07/15 08:59:07;;;;;;;3.22;1.85;;;29.80;79.40;;;;;;5037041;28;20048;-79
2023/07/15 09:01:35;;;;;;;3.22;2.15;;;29.80;78.20;;;;;;5052419;28;20079;-80
2023/07/15 09:04:03;;;;;;;4.05;2.20;;;30.00;77.70;;;;;;5043253;28;20052;-80
2023/07/15 09:06:30;;;;;;;4.05;2.00;;;30.10;77.70;;;;;;5035236;28;20042;-80
2023/07/15 09:08:57;;;;;;;3.85;2.17;;;30.10;77.10;;;;;;5030124;28;20037;-80
2023/07/15 09:11:24;;;;;;;3.58;1.90;;;30.20;77.90;;;;;;5026002;28;20145;-78
2023/07/15 09:13:52;;;;;;;1.98;1.73;;;30.30;77.10;;;;;;5009380;28;20036;-78
2023/07/15 09:16:19;;;;;;;2.38;1.85;;;30.30;77.20;;;;;;5025323;28;20523;-81
2023/07/15 09:18:48;;;;;;;3.45;1.90;;;30.20;76.00;;;;;;5025826;28;20060;-79
2023/07/15 09:21:16;;;;;;;2.58;1.58;;;30.30;76.30;;;;;;5038322;28;20064;-79
2023/07/15 09:23:45;;;;;;;1.88;1.30;;;30.40;74.70;;;;;;5010055;28;20059;-77
2023/07/15 09:26:13;;;;;;;2.45;1.23;;;30.40;72.50;;;;;;5035200;28;20808;-77
2023/07/15 09:28:46;;;;;;;2.28;1.40;;;30.30;70.40;;;;;;5026764;28;20056;-79
2023/07/15 09:31:25;;;;;;;2.50;1.50;;;30.30;71.30;;;;;;5023995;28;22566;-78
2023/07/15 09:34:03;;;;;;;4.13;1.38;;;30.30;71.90;;;;;;5036757;28;20055;-83
2023/07/15 09:36:31;;;;;;;2.10;1.90;;;30.30;72.60;;;;;;5026924;28;20056;-82
2023/07/15 09:39:10;;;;;;;1.98;1.50;;;30.40;72.70;;;;;;5029217;28;20087;-80
2023/07/15 09:41:37;;;;;;;2.85;1.63;;;30.40;73.40;;;;;;5048889;28;20162;-79
2023/07/15 09:44:05;;;;;;;3.03;1.65;;;30.00;73.30;;;;;;5038991;28;20055;-81
2023/07/15 09:46:32;;;;;;;3.38;1.38;;;30.10;73.00;;;;;;5030652;28;20126;-78
2023/07/15 09:49:00;;;;;;;1.58;1.20;;;30.30;71.20;;;;;;5024175;28;20138;-79
2023/07/15 09:51:27;;;;;;;2.80;1.17;;;30.30;70.70;;;;;;5009540;28;20037;-80
2023/07/15 09:53:56;;;;;;;2.08;1.38;;;30.10;71.30;;;;;;5031205;28;20048;-82
2023/07/15 09:56:40;;;;;;;2.28;1.58;;;30.30;72.70;;;;;;5031847;28;20047;-82
2023/07/15 09:59:15;;;;;;;3.35;1.00;;;30.00;71.80;;;;;;5031829;28;20112;-79
2023/07/15 10:01:50;;;;;;;2.28;1.38;;;29.80;72.90;;;;;;5034173;28;20060;-80
2023/07/15 10:04:20;;;;;;;4.45;2.25;;;30.00;72.10;;;;;;5027493;28;20052;-80
2023/07/15 10:06:49;;;;;;;2.63;1.30;;;30.30;72.10;;;;;;5046193;28;20041;-79
2023/07/15 10:09:17;;;;;;;1.73;1.10;;;30.60;71.90;;;;;;5053587;28;20048;-81
2023/07/15 10:11:46;;;;;;;2.63;1.30;;;30.30;72.10;;;;;;5037981;28;20040;-80
2023/07/15 10:14:13;;;;;;;2.80;1.48;;;30.20;73.30;;;;;;5041078;28;20562;-80
2023/07/15 10:16:40;;;;;;;3.33;1.45;;;30.40;73.10;;;;;;5039547;28;20041;-81
2023/07/15 10:19:47;;;;;;;1.98;1.48;;;30.00;71.10;;;;;;5031833;28;20050;-81
2023/07/15 10:22:18;;;;;;;2.15;1.50;;;29.90;72.00;;;;;;5032462;28;20190;-79
2023/07/15 10:24:57;;;;;;;2.38;1.52;;;30.30;71.90;;;;;;5005992;28;20060;-79
2023/07/15 10:27:28;;;;;;;3.30;1.70;;;30.60;73.00;;;;;;5023446;28;20055;-80
2023/07/15 10:30:27;;;;;;;1.90;1.60;;;30.80;72.80;;;;;;5007528;28;20041;-81
2023/07/15 10:33:01;;;;;;;3.63;1.77;;;30.70;71.80;;;;;;5032059;28;20407;-80
2023/07/15 10:35:42;;;;;;;2.60;1.80;;;30.60;72.70;;;;;;5029379;28;20127;-81
2023/07/15 10:38:27;;;;;;;2.85;2.00;;;30.40;73.60;;;;;;5045902;28;20045;-81
2023/07/15 10:41:02;;;;;;;2.22;1.70;;;30.70;73.50;;;;;;5033462;28;20041;-81
2023/07/15 10:43:40;;;;;;;2.35;1.85;;;30.80;72.00;;;;;;5028841;28;20133;-79
2023/07/15 10:46:12;;;;;;;1.85;1.45;;;30.70;70.30;;;;;;4998902;28;20179;-80
2023/07/15 10:48:40;;;;;;;2.95;1.95;;;30.80;71.80;;;;;;5051033;28;20516;-81
2023/07/15 10:51:11;;;;;;;2.80;1.80;;;30.50;70.80;;;;;;5034367;28;20045;-79
2023/07/15 10:53:38;;;;;;;2.53;1.50;;;30.30;71.50;;;;;;5043537;28;20044;-79
2023/07/15 10:56:09;;;;;;;2.20;1.58;;;30.50;70.40;;;;;;5040675;28;20082;-82
2023/07/15 10:58:36;;;;;;;2.00;1.80;;;30.70;72.70;;;;;;5026629;28;20500;-81
2023/07/15 11:01:08;;;;;;;3.28;1.85;;;30.60;71.70;;;;;;5040294;28;20076;-80
2023/07/15 11:03:38;;;;;;;3.45;1.83;;;30.40;73.00;;;;;;5045338;28;20037;-79
2023/07/15 11:06:05;;;;;;;2.92;1.77;;;30.50;73.70;;;;;;5033684;28;20048;-79
2023/07/15 11:08:38;;;;;;;4.75;2.50;;;30.10;72.70;;;;;;5035700;28;20040;-82
2023/07/15 11:11:08;;;;;;;3.22;2.10;;;30.10;73.70;;;;;;5013466;28;20705;-79
2023/07/15 11:13:36;;;;;;;5.57;2.03;;;30.40;73.30;;;;;;5047450;28;20676;-78
2023/07/15 11:16:04;;;;;;;3.17;2.00;;;30.60;71.90;;;;;;5025951;28;20779;-79
2023/07/15 11:18:31;;;;;;;4.57;2.00;;;30.70;71.60;;;;;;5010057;28;22792;-80
2023/07/15 11:21:00;;;;;;;3.63;2.33;;;30.60;71.40;;;;;;5045844;28;20185;-82
2023/07/15 11:23:28;;;;;;;4.05;2.15;;;30.40;71.80;;;;;;5043244;28;20509;-78
2023/07/15 11:25:57;;;;;;;3.97;2.10;;;30.20;73.60;;;;;;5047649;28;20055;-79
2023/07/15 11:28:26;;;;;;;1.85;1.75;;;30.50;72.90;;;;;;5034669;28;20041;-79
2023/07/15 11:30:53;;;;;;;3.10;2.65;;;30.50;71.80;;;;;;5029319;28;20084;-81
2023/07/15 11:33:20;;;;;;;2.72;2.35;;;30.40;72.00;;;;;;5032733;28;20049;-82
2023/07/15 11:35:47;;;;;;;4.03;2.80;;;30.40;71.90;;;;;;5030176;28;20257;-80
2023/07/15 11:38:27;;;;;;;3.88;3.20;;;30.10;71.50;;;;;;5017532;28;20101;-79
2023/07/15 11:40:59;;;;;;;3.50;3.20;;;30.30;71.40;;;;;;5027107;28;20047;-78
2023/07/15 11:43:28;;;;;;;3.83;2.97;;;30.50;71.60;;;;;;5045006;28;20106;-81
2023/07/15 11:45:57;;;;;;;3.25;3.00;;;30.70;70.50;;;;;;5030225;28;20127;-79
2023/07/15 11:48:31;;;;;;;5.35;3.10;;;30.60;70.20;;;;;;5024914;28;20044;-77
2023/07/15 11:51:08;;;;;;;3.38;3.08;;;30.70;70.80;;;;;;5019092;28;20037;-78
2023/07/15 11:53:38;;;;;;;3.90;3.42;;;30.80;71.20;;;;;;5007325;28;20041;-81
2023/07/15 11:56:09;;;;;;;5.63;4.35;;;30.80;70.60;;;;;;5011556;28;20048;-80
2023/07/15 11:58:45;;;;;;;4.30;3.90;;;30.70;70.90;;;;;;5054467;28;20685;-80
2023/07/15 12:01:17;;;;;;;4.47;4.07;;;30.80;71.00;;;;;;5040233;28;20183;-79
2023/07/15 12:03:45;;;;;;;7.40;4.28;;;30.90;71.20;;;;;;5040509;28;20045;-81
2023/07/15 12:06:17;;;;;;;8.35;4.97;;;31.00;71.20;;;;;;5020518;28;22442;-80
2023/07/15 12:08:59;;;;;;;4.65;4.00;;;30.80;70.40;;;;;;5051880;28;20500;-79
2023/07/15 12:11:27;;;;;;;3.70;3.40;;;30.80;71.20;;;;;;5041226;28;20474;-81
2023/07/15 12:13:54;;;;;;;6.57;4.32;;;30.90;70.60;;;;;;5038401;28;20039;-81
2023/07/15 12:16:23;;;;;;;5.47;4.97;;;31.00;71.30;;;;;;5031005;28;20412;-81
2023/07/15 12:18:52;;;;;;;5.00;4.50;;;31.10;71.20;;;;;;5022179;28;20040;-80
2023/07/15 12:21:20;;;;;;;4.20;3.63;;;31.20;70.10;;;;;;5018366;28;20504;-80
2023/07/15 12:23:50;;;;;;;7.60;4.18;;;31.00;70.10;;;;;;5040405;28;20672;-80
2023/07/15 12:26:18;;;;;;;4.93;3.83;;;31.00;70.10;;;;;;5017142;28;20666;-81
2023/07/15 12:28:45;;;;;;;5.57;4.53;;;31.00;69.90;;;;;;5019273;28;20044;-78
2023/07/15 12:31:14;;;;;;;5.30;4.22;;;31.00;69.30;;;;;;5028527;28;20386;-81
2023/07/15 12:33:43;;;;;;;5.07;3.72;;;31.00;70.10;;;;;;5031295;28;20416;-79
2023/07/15 12:36:13;;;;;;;4.32;3.88;;;31.00;71.40;;;;;;5022062;28;20581;-79
2023/07/15 12:38:41;;;;;;;5.03;3.85;;;31.10;71.50;;;;;;5021742;28;20500;-82
2023/07/15 12:41:09;;;;;;;5.90;3.78;;;31.10;69.20;;;;;;5045550;28;20158;-81
2023/07/15 12:43:38;;;;;;;3.63;3.28;;;31.10;70.00;;;;;;5026933;28;20133;-83
2023/07/15 12:46:06;;;;;;;3.75;2.90;;;31.10;70.10;;;;;;5041326;28;20057;-80
2023/07/15 12:48:33;;;;;;;3.58;2.90;;;31.20;70.30;;;;;;5025232;28;20142;-80
2023/07/15 12:51:00;;;;;;;4.55;3.40;;;31.20;68.90;;;;;;5021896;28;20511;-80
2023/07/15 12:53:27;;;;;;;4.80;3.28;;;31.20;69.20;;;;;;5043547;28;20555;-82
2023/07/15 12:55:55;;;;;;;4.30;2.78;;;31.20;69.60;;;;;;5026783;28;20107;-79
2023/07/15 12:58:22;;;;;;;3.90;3.50;;;31.20;68.70;;;;;;5030950;28;20045;-81
2023/07/15 13:00:50;;;;;;;3.10;2.80;;;31.20;68.00;;;;;;5053414;28;20056;-81
2023/07/15 13:03:18;;;;;;;4.72;3.13;;;31.10;68.80;;;;;;5036928;28;20141;-80
2023/07/15 13:05:45;;;;;;;2.92;2.40;;;31.10;69.70;;;;;;5011281;28;20078;-81
2023/07/15 13:08:15;;;;;;;3.83;2.78;;;31.20;70.10;;;;;;5014005;28;20508;-81
2023/07/15 13:10:45;;;;;;;4.28;2.13;;;31.30;71.00;;;;;;5039531;28;20052;-81
2023/07/15 13:13:12;;;;;;;4.68;2.25;;;31.40;69.90;;;;;;5045045;28;20036;-81
2023/07/15 13:15:46;;;;;;;3.20;2.00;;;31.60;69.70;;;;;;5050608;28;20415;-81
2023/07/15 13:18:13;;;;;;;2.42;1.95;;;31.50;67.40;;;;;;5044981;28;20056;-80
2023/07/15 13:20:41;;;;;;;3.00;2.15;;;31.50;67.70;;;;;;5024112;28;20053;-81
2023/07/15 13:23:08;;;;;;;2.58;2.08;;;31.40;68.10;;;;;;5006079;28;20728;-81
2023/07/15 13:25:36;;;;;;;3.92;2.20;;;31.40;69.00;;;;;;5039081;28;20052;-81
2023/07/15 13:28:04;;;;;;;2.22;1.73;;;31.40;67.70;;;;;;5006815;28;20049;-82
2023/07/15 13:30:31;;;;;;;12.98;2.33;;;31.50;68.60;;;;;;5040441;28;20125;-80
2023/07/15 13:32:59;;;;;;;3.70;1.92;;;31.50;68.90;;;;;;5034038;28;20051;-82
2023/07/15 13:35:27;;;;;;;2.63;1.73;;;31.50;67.30;;;;;;5034353;28;20045;-80
2023/07/15 13:37:54;;;;;;;3.88;2.13;;;31.50;66.80;;;;;;5032590;28;20051;-79
2023/07/15 13:40:21;;;;;;;5.00;2.20;;;31.50;66.90;;;;;;5006353;28;20098;-80
2023/07/15 13:42:51;;;;;;;2.20;2.00;;;31.50;68.00;;;;;;5026843;28;20047;-85
2023/07/15 13:45:18;;;;;;;7.35;2.25;;;31.60;68.20;;;;;;5036952;28;20173;-81
2023/07/15 13:47:52;;;;;;;4.00;2.20;;;31.60;68.70;;;;;;5055011;28;21362;-79
2023/07/15 13:50:20;;;;;;;4.55;2.10;;;31.60;67.50;;;;;;5026457;28;20090;-82
2023/07/15 13:52:47;;;;;;;4.00;2.15;;;31.60;69.00;;;;;;5021422;28;20057;-81
2023/07/15 13:55:16;;;;;;;3.70;1.83;;;31.40;69.20;;;;;;5055930;28;20044;-85
2023/07/15 13:57:44;;;;;;;3.15;1.83;;;31.40;68.00;;;;;;5010533;28;21001;-85
2023/07/15 14:00:12;;;;;;;8.45;2.58;;;31.60;68.90;;;;;;5037620;28;20524;-83
2023/07/15 14:02:41;;;;;;;3.55;2.15;;;31.50;68.40;;;;;;5044212;28;20684;-82
2023/07/15 14:05:09;;;;;;;3.55;1.90;;;31.50;68.60;;;;;;5041749;28;20060;-82
2023/07/15 14:07:37;;;;;;;2.50;2.05;;;31.40;67.80;;;;;;5041951;28;22829;-82
2023/07/15 14:10:05;;;;;;;2.45;1.90;;;31.40;69.40;;;;;;5051298;28;20135;-81
2023/07/15 14:12:33;;;;;;;4.00;2.00;;;31.40;68.70;;;;;;5037337;28;20045;-79
2023/07/15 14:15:00;;;;;;;3.40;2.05;;;31.40;68.00;;;;;;5028771;28;20692;-79
2023/07/15 14:17:28;;;;;;;3.15;2.03;;;31.40;68.10;;;;;;5028857;28;20079;-80
2023/07/15 14:19:58;;;;;;;2.53;1.63;;;31.40;68.20;;;;;;5052892;28;20041;-81
2023/07/15 14:22:25;;;;;;;2.22;2.00;;;31.40;68.00;;;;;;5031375;28;20059;-83
2023/07/15 14:25:12;;;;;;;2.63;2.00;;;31.40;67.70;;;;;;5057227;28;20056;-82
2023/07/15 14:27:40;;;;;;;3.25;2.22;;;31.40;66.90;;;;;;5041405;28;20428;-83
2023/07/15 14:30:07;;;;;;;2.47;1.90;;;31.50;66.30;;;;;;5035676;28;20514;-83
2023/07/15 14:32:35;;;;;;;4.45;2.35;;;31.40;67.30;;;;;;5030796;28;20048;-81
2023/07/15 14:35:02;;;;;;;2.38;2.10;;;31.40;66.70;;;;;;5025916;28;20719;-84
2023/07/15 14:37:29;;;;;;;4.88;2.42;;;31.30;66.90;;;;;;5027672;28;20048;-83
2023/07/15 14:39:56;;;;;;;3.28;2.97;;;31.30;67.70;;;;;;5043103;28;20412;-84
2023/07/15 14:42:23;;;;;;;3.28;1.98;;;31.20;67.50;;;;;;5032560;28;20135;-79
2023/07/15 14:44:50;;;;;;;2.58;2.38;;;31.20;67.90;;;;;;5033985;28;20048;-82
2023/07/15 14:47:18;;;;;;;3.28;2.58;;;31.20;67.20;;;;;;5044737;28;20109;-82
2023/07/15 14:49:47;;;;;;;4.18;2.30;;;31.20;68.10;;;;;;5028321;28;20045;-83
2023/07/15 14:52:14;;;;;;;3.70;2.78;;;31.10;67.40;;;;;;5031004;28;20088;-83
2023/07/15 14:54:41;;;;;;;2.58;2.38;;;31.10;68.20;;;;;;5030196;28;21017;-82
2023/07/15 14:57:08;;;;;;;3.17;2.50;;;31.00;68.20;;;;;;5013012;28;20052;-81
2023/07/15 14:59:36;;;;;;;3.00;2.55;;;30.90;67.40;;;;;;5028314;28;20049;-84
2023/07/15 15:02:03;;;;;;;4.72;2.72;;;30.90;68.00;;;;;;5022128;28;20040;-83
2023/07/15 15:04:30;;;;;;;3.35;2.65;;;30.90;67.60;;;;;;5016207;28;20194;-84
2023/07/15 15:06:57;;;;;;;3.45;2.70;;;30.90;68.60;;;;;;5005924;28;20048;-84
2023/07/15 15:09:24;;;;;;;4.95;2.80;;;30.90;68.10;;;;;;5040269;28;20044;-84
2023/07/15 15:11:52;;;;;;;3.20;2.90;;;30.90;68.50;;;;;;5046166;28;20045;-82
2023/07/15 15:14:24;;;;;;;3.90;3.20;;;30.90;68.70;;;;;;5028129;28;22552;-83
2023/07/15 15:16:51;;;;;;;2.75;2.55;;;30.80;67.80;;;;;;5029362;28;20175;-81
2023/07/15 15:19:18;;;;;;;3.58;2.55;;;30.80;68.50;;;;;;5017269;28;20558;-82
2023/07/15 15:21:45;;;;;;;3.35;2.70;;;30.80;67.90;;;;;;5005373;28;20052;-84
2023/07/15 15:24:12;;;;;;;3.33;2.58;;;30.80;67.90;;;;;;5027861;28;20166;-83
2023/07/15 15:26:40;;;;;;;13.85;4.00;;;30.80;69.10;;;;;;5040663;28;20607;-82
2023/07/15 15:29:08;;;;;;;4.32;2.80;;;30.70;68.80;;;;;;5006742;28;20045;-81
2023/07/15 15:31:35;;;;;;;3.17;2.83;;;30.70;68.80;;;;;;5051078;28;20076;-82
2023/07/15 15:34:02;;;;;;;2.92;2.63;;;30.70;68.50;;;;;;5040094;28;20542;-84
2023/07/15 15:36:30;;;;;;;4.25;2.58;;;30.70;68.80;;;;;;5044236;28;20131;-81
2023/07/15 15:38:57;;;;;;;3.75;2.58;;;30.70;68.70;;;;;;5009984;28;20480;-83
2023/07/15 15:41:24;;;;;;;4.53;2.72;;;30.60;68.20;;;;;;5055757;28;20058;-83
2023/07/15 15:43:51;;;;;;;4.00;2.83;;;30.60;67.70;;;;;;5037197;28;20064;-83
2023/07/15 15:46:18;;;;;;;2.67;2.33;;;30.60;67.90;;;;;;5040038;28;20105;-82
2023/07/15 15:48:45;;;;;;;4.97;3.00;;;30.60;67.40;;;;;;5031143;28;23098;-84
2023/07/15 15:51:12;;;;;;;4.50;3.05;;;30.50;68.40;;;;;;5035046;28;20493;-82
2023/07/15 15:54:02;;;;;;;3.80;2.85;;;30.50;68.70;;;;;;5039346;28;20044;-82
2023/07/15 15:56:33;;;;;;;6.53;2.28;;;30.50;68.30;;;;;;5036360;28;20084;-82
2023/07/15 15:59:00;;;;;;;3.22;2.42;;;30.50;67.50;;;;;;5030457;28;20056;-82
2023/07/15 16:01:27;;;;;;;2.50;2.25;;;30.50;67.70;;;;;;5029828;28;20072;-81
2023/07/15 16:03:55;;;;;;;4.53;2.65;;;30.40;66.90;;;;;;5002553;28;20688;-83
2023/07/15 16:06:22;;;;;;;5.25;3.20;;;30.40;67.10;;;;;;5039522;28;20041;-83
2023/07/15 16:08:50;;;;;;;3.22;2.33;;;30.40;67.60;;;;;;5028232;28;20122;-82
2023/07/15 16:11:18;;;;;;;3.90;2.42;;;30.40;67.10;;;;;;5058481;28;20442;-82
2023/07/15 16:13:46;;;;;;;2.90;2.40;;;30.40;66.60;;;;;;5055989;28;20229;-83
2023/07/15 16:16:13;;;;;;;3.42;2.20;;;30.40;67.20;;;;;;5061988;28;20068;-82
2023/07/15 16:18:40;;;;;;;3.90;2.60;;;30.40;68.10;;;;;;5027676;28;20198;-83
2023/07/15 16:21:07;;;;;;;3.00;2.28;;;30.30;68.10;;;;;;5020473;28;20048;-83
2023/07/15 16:23:34;;;;;;;5.22;2.83;;;30.30;68.80;;;;;;5028119;28;20404;-83
2023/07/15 16:26:02;;;;;;;4.82;2.55;;;30.30;68.80;;;;;;5028445;28;20196;-82
2023/07/15 16:28:29;;;;;;;4.40;2.20;;;30.20;68.10;;;;;;5018540;28;20040;-82
2023/07/15 16:30:56;;;;;;;3.15;2.30;;;30.20;67.30;;;;;;5028618;28;20037;-83
2023/07/15 16:33:23;;;;;;;3.30;2.08;;;30.20;67.60;;;;;;5035412;28;20087;-83
2023/07/15 16:35:51;;;;;;;2.50;2.10;;;30.20;67.80;;;;;;5041865;28;20044;-81
2023/07/15 16:38:19;;;;;;;4.90;2.58;;;30.20;68.00;;;;;;5031460;28;20669;-83
2023/07/15 16:40:46;;;;;;;2.70;2.45;;;30.20;67.50;;;;;;5021324;28;20053;-84
2023/07/15 16:43:13;;;;;;;3.05;2.10;;;30.10;68.10;;;;;;5022013;28;20110;-84
2023/07/15 16:45:40;;;;;;;2.92;2.42;;;30.20;68.40;;;;;;5027733;28;20067;-83
2023/07/15 16:48:07;;;;;;;3.75;2.15;;;30.10;68.50;;;;;;5051338;28;20056;-84
2023/07/15 16:50:35;;;;;;;4.03;2.50;;;30.10;68.30;;;;;;5021644;28;20067;-82
2023/07/15 16:53:02;;;;;;;3.50;2.40;;;30.10;68.10;;;;;;5038188;28;21516;-83
2023/07/15 16:55:29;;;;;;;3.30;2.80;;;30.10;68.50;;;;;;5030166;28;20036;-82
2023/07/15 16:57:56;;;;;;;6.88;2.67;;;30.20;68.60;;;;;;5038373;28;20274;-81
2023/07/15 17:00:23;;;;;;;8.80;3.45;;;30.10;68.60;;;;;;5021899;28;20228;-83
2023/07/15 17:02:50;;;;;;;2.38;2.08;;;30.10;68.60;;;;;;5043435;28;20048;-84
2023/07/15 17:05:17;;;;;;;3.22;2.17;;;30.10;69.00;;;;;;5023971;28;20217;-84
2023/07/15 17:07:45;;;;;;;2.53;2.08;;;30.00;69.30;;;;;;5049518;28;20048;-84
2023/07/15 17:10:12;;;;;;;4.05;2.25;;;29.90;69.20;;;;;;5042060;28;20216;-83
2023/07/15 17:12:39;;;;;;;4.78;2.70;;;29.90;69.50;;;;;;5003113;28;20045;-83
2023/07/15 17:15:07;;;;;;;3.33;2.67;;;29.80;69.20;;;;;;5049105;28;20578;-84
2023/07/15 17:17:34;;;;;;;3.72;2.55;;;29.80;69.10;;;;;;5040469;28;20047;-84
2023/07/15 17:20:01;;;;;;;4.60;2.45;;;29.80;69.40;;;;;;5007772;28;20076;-84
2023/07/15 17:22:28;;;;;;;2.92;2.63;;;29.70;70.00;;;;;;5026420;28;20080;-83